createdAt,value
2018-07-05T00:00:26.918Z,100457.00
2018-07-05T00:03:07.691Z,100460.00
2018-07-05T00:05:54.247Z,100466.00
2018-07-05T00:08:40.957Z,100468.00
2018-07-05T00:11:27.391Z,100461.00
2018-07-05T00:14:14.034Z,100453.00
2018-07-05T00:17:00.126Z,100454.00
2018-07-05T00:19:46.480Z,100451.00
2018-07-05T00:22:33.174Z,100446.00
2018-07-05T00:25:19.606Z,100438.00
2018-07-05T00:28:06.161Z,100439.00
2018-07-05T00:30:52.816Z,100439.00
2018-07-05T00:33:39.496Z,100441.00
2018-07-05T00:36:27.281Z,100444.00
2018-07-05T00:39:13.948Z,100445.00
2018-07-05T00:42:00.783Z,100449.00
2018-07-05T00:44:47.450Z,100450.00
2018-07-05T00:47:34.179Z,100446.00
2018-07-05T00:50:21.044Z,100445.00
2018-07-05T00:53:07.714Z,100439.00
2018-07-05T00:55:53.880Z,100439.00
2018-07-05T00:58:40.425Z,100431.00
2018-07-05T01:01:27.056Z,100436.00
2018-07-05T01:04:13.488Z,100432.00
2018-07-05T01:07:00.116Z,100437.00
2018-07-05T01:09:46.385Z,100444.00
2018-07-05T01:12:33.341Z,100451.00
2018-07-05T01:15:20.172Z,100446.00
2018-07-05T01:18:00.518Z,100446.00
2018-07-05T01:20:47.156Z,100453.00
2018-07-05T01:23:33.759Z,100454.00
2018-07-05T01:26:20.420Z,100451.00
2018-07-05T01:29:07.100Z,100450.00
2018-07-05T01:31:53.685Z,100452.00
2018-07-05T01:34:40.479Z,100449.00
2018-07-05T01:37:27.118Z,100444.00
2018-07-05T01:40:13.828Z,100441.00
2018-07-05T01:43:00.609Z,100439.00
2018-07-05T01:45:47.050Z,100435.00
2018-07-05T01:48:33.735Z,100444.00
2018-07-05T01:51:20.381Z,100440.00
2018-07-05T01:54:07.106Z,100448.00
2018-07-05T01:56:54.043Z,100448.00
2018-07-05T01:59:40.765Z,100450.00
2018-07-05T02:02:27.461Z,100450.00
2018-07-05T02:05:13.877Z,100457.00
2018-07-05T02:08:00.522Z,100450.00
2018-07-05T02:10:47.096Z,100443.00
2018-07-05T02:13:33.665Z,100440.00
2018-07-05T02:16:20.440Z,100445.00
2018-07-05T02:19:07.081Z,100448.00
2018-07-05T02:21:53.731Z,100450.00
2018-07-05T02:24:40.070Z,100442.00
2018-07-05T02:27:26.466Z,100439.00
2018-07-05T02:30:12.827Z,100443.00
2018-07-05T02:32:59.160Z,100442.00
2018-07-05T02:35:45.811Z,100440.00
2018-07-05T02:38:32.612Z,100445.00
2018-07-05T02:41:19.344Z,100445.00
2018-07-05T02:44:06.129Z,100445.00
2018-07-05T02:46:52.922Z,100443.00
2018-07-05T02:49:39.622Z,100441.00
2018-07-05T02:52:26.570Z,100443.00
2018-07-05T02:55:13.392Z,100440.00
2018-07-05T02:57:59.596Z,100436.00
2018-07-05T03:00:46.685Z,100433.00
2018-07-05T03:03:33.466Z,100435.00
2018-07-05T03:06:19.951Z,100437.00
2018-07-05T03:09:06.767Z,100433.00
2018-07-05T03:11:53.481Z,100434.00
2018-07-05T03:14:40.371Z,100431.00
2018-07-05T03:17:27.214Z,100428.00
2018-07-05T03:20:14.117Z,100435.00
2018-07-05T03:23:00.896Z,100431.00
2018-07-05T03:25:47.936Z,100430.00
2018-07-05T03:28:34.662Z,100428.00
2018-07-05T03:31:21.381Z,100438.00
2018-07-05T03:34:07.980Z,100447.00
2018-07-05T03:36:55.013Z,100453.00
2018-07-05T03:39:41.500Z,100448.00
2018-07-05T03:42:28.425Z,100456.00
2018-07-05T03:45:15.084Z,100447.00
2018-07-05T03:48:01.679Z,100439.00
2018-07-05T03:50:47.781Z,100441.00
2018-07-05T03:53:34.325Z,100437.00
2018-07-05T03:56:20.915Z,100438.00
2018-07-05T03:59:07.715Z,100437.00
2018-07-05T04:01:54.253Z,100429.00
2018-07-05T04:04:40.759Z,100425.00
2018-07-05T04:07:27.411Z,100423.00
2018-07-05T04:10:14.270Z,100427.00
2018-07-05T04:13:00.740Z,100427.00
2018-07-05T04:15:47.470Z,100423.00
2018-07-05T04:18:33.761Z,100421.00
2018-07-05T04:21:20.117Z,100420.00
2018-07-05T04:24:07.024Z,100428.00
2018-07-05T04:26:53.505Z,100432.00
2018-07-05T04:29:40.229Z,100432.00
2018-07-05T04:32:26.607Z,100431.00
2018-07-05T04:35:13.419Z,100432.00
2018-07-05T04:37:59.896Z,100437.00
2018-07-05T04:40:46.646Z,100439.00
2018-07-05T04:43:33.066Z,100439.00
2018-07-05T04:46:19.712Z,100443.00
2018-07-05T04:49:06.380Z,100446.00
2018-07-05T04:51:52.985Z,100437.00
2018-07-05T04:54:39.587Z,100443.00
2018-07-05T04:57:26.107Z,100438.00
2018-07-05T05:00:12.692Z,100438.00
2018-07-05T05:02:59.296Z,100435.00
2018-07-05T05:05:45.890Z,100437.00
2018-07-05T05:08:32.795Z,100446.00
2018-07-05T05:11:19.614Z,100444.00
2018-07-05T05:14:06.137Z,100446.00
2018-07-05T05:16:52.877Z,100447.00
2018-07-05T05:19:39.441Z,100441.00
2018-07-05T05:22:26.176Z,100447.00
2018-07-05T05:25:12.956Z,100447.00
2018-07-05T05:27:59.581Z,100448.00
2018-07-05T05:30:45.822Z,100454.00
2018-07-05T05:33:32.581Z,100454.00
2018-07-05T05:36:18.986Z,100460.00
2018-07-05T05:39:06.136Z,100459.00
2018-07-05T05:41:46.629Z,100459.00
2018-07-05T05:44:33.136Z,100455.00
2018-07-05T05:47:19.561Z,100464.00
2018-07-05T05:50:06.380Z,100463.00
2018-07-05T05:52:52.951Z,100461.00
2018-07-05T05:55:39.265Z,100456.00
2018-07-05T05:58:25.760Z,100453.00
2018-07-05T06:01:12.225Z,100455.00
2018-07-05T06:03:58.776Z,100444.00
2018-07-05T06:06:45.382Z,100441.00
2018-07-05T06:09:32.027Z,100441.00
2018-07-05T06:12:18.621Z,100448.00
2018-07-05T06:15:05.682Z,100454.00
2018-07-05T06:17:52.590Z,100460.00
2018-07-05T06:20:39.120Z,100467.00
2018-07-05T06:23:25.676Z,100467.00
2018-07-05T06:26:12.477Z,100467.00
2018-07-05T06:28:59.450Z,100466.00
2018-07-05T06:31:46.248Z,100469.00
2018-07-05T06:34:32.475Z,100476.00
2018-07-05T06:37:19.067Z,100488.00
2018-07-05T06:40:05.355Z,100512.00
2018-07-05T06:42:51.808Z,100522.00
2018-07-05T06:45:38.630Z,100529.00
2018-07-05T06:48:25.381Z,100522.00
2018-07-05T06:51:12.846Z,100514.00
2018-07-05T06:53:59.526Z,100522.00
2018-07-05T06:56:46.448Z,100529.00
2018-07-05T06:59:32.956Z,100538.00
2018-07-05T07:02:19.865Z,100512.00
2018-07-05T07:05:06.569Z,100510.00
2018-07-05T07:07:53.190Z,100498.00
2018-07-05T07:10:39.637Z,100493.00
2018-07-05T07:13:26.108Z,100493.00
2018-07-05T07:16:12.711Z,100503.00
2018-07-05T07:18:59.415Z,100513.00
2018-07-05T07:21:46.302Z,100505.00
2018-07-05T07:24:33.075Z,100508.00
2018-07-05T07:27:19.702Z,100518.00
2018-07-05T07:30:06.404Z,100519.00
2018-07-05T07:32:53.251Z,100515.00
2018-07-05T07:35:39.931Z,100513.00
2018-07-05T07:38:26.435Z,100515.00
2018-07-05T07:41:13.200Z,100506.00
2018-07-05T07:43:41.079Z,100507.00
2018-07-05T07:46:09.004Z,100505.00
2018-07-05T07:48:37.008Z,100500.00
2018-07-05T07:51:04.859Z,100498.00
2018-07-05T07:53:33.038Z,100500.00
2018-07-05T07:56:01.638Z,100501.00
2018-07-05T07:58:29.670Z,100505.00
2018-07-05T08:00:57.580Z,100502.00
2018-07-05T08:03:25.500Z,100502.00
2018-07-05T08:05:53.411Z,100498.00
2018-07-05T08:08:21.440Z,100500.00
2018-07-05T08:10:49.489Z,100495.00
2018-07-05T08:13:17.452Z,100492.00
2018-07-05T08:15:45.473Z,100491.00
2018-07-05T08:18:13.522Z,100495.00
2018-07-05T08:20:41.506Z,100499.00
2018-07-05T08:23:09.477Z,100504.00
2018-07-05T08:25:37.912Z,100505.00
2018-07-05T08:28:05.925Z,100503.00
2018-07-05T08:30:33.911Z,100510.00
2018-07-05T08:33:02.002Z,100509.00
2018-07-05T08:35:30.112Z,100503.00
2018-07-05T08:37:58.013Z,100504.00
2018-07-05T08:40:26.550Z,100505.00
2018-07-05T08:42:54.388Z,100510.00
2018-07-05T08:45:22.297Z,100504.00
2018-07-05T08:47:50.344Z,100502.00
2018-07-05T08:50:18.197Z,100504.00
2018-07-05T08:52:46.082Z,100503.00
2018-07-05T08:55:14.112Z,100502.00
2018-07-05T08:57:42.051Z,100502.00
2018-07-05T09:00:10.115Z,100500.00
2018-07-05T09:02:38.047Z,100506.00
2018-07-05T09:05:06.039Z,100504.00
2018-07-05T09:07:34.011Z,100499.00
2018-07-05T09:10:01.910Z,100504.00
2018-07-05T09:12:29.922Z,100503.00
2018-07-05T09:14:57.798Z,100503.00
2018-07-05T09:17:25.717Z,100507.00
2018-07-05T09:19:53.743Z,100501.00
2018-07-05T09:22:21.792Z,100498.00
2018-07-05T09:24:49.662Z,100498.00
2018-07-05T09:27:17.663Z,100494.00
2018-07-05T09:29:46.008Z,100497.00
2018-07-05T09:32:13.953Z,100496.00
2018-07-05T09:34:42.134Z,100493.00
2018-07-05T09:37:15.557Z,100493.00
2018-07-05T09:39:43.653Z,100494.00
2018-07-05T09:42:11.710Z,100485.00
2018-07-05T09:44:39.658Z,100490.00
2018-07-05T09:47:07.906Z,100494.00
2018-07-05T09:49:35.830Z,100498.00
2018-07-05T09:52:04.004Z,100489.00
2018-07-05T09:54:31.935Z,100483.00
2018-07-05T09:57:00.244Z,100486.00
2018-07-05T09:59:28.057Z,100487.00
2018-07-05T10:01:55.956Z,100487.00
2018-07-05T10:04:24.036Z,100489.00
2018-07-05T10:06:52.153Z,100486.00
2018-07-05T10:09:20.067Z,100487.00
2018-07-05T10:11:47.937Z,100477.00
2018-07-05T10:14:15.913Z,100473.00
2018-07-05T10:16:43.869Z,100472.00
2018-07-05T10:19:11.889Z,100472.00
2018-07-05T10:21:40.099Z,100468.00
2018-07-05T10:24:08.154Z,100467.00
2018-07-05T10:26:36.143Z,100463.00
2018-07-05T10:29:23.033Z,100472.00
2018-07-05T10:32:09.718Z,100462.00
2018-07-05T10:34:37.598Z,100460.00
2018-07-05T10:37:05.451Z,100458.00
2018-07-05T10:39:34.203Z,100453.00
2018-07-05T10:42:20.979Z,100452.00
2018-07-05T10:45:02.063Z,100454.00
2018-07-05T10:47:48.926Z,100451.00
2018-07-05T10:50:35.491Z,100447.00
2018-07-05T10:53:23.087Z,100448.00
2018-07-05T10:56:09.832Z,100447.00
2018-07-05T10:58:56.046Z,100458.00
2018-07-05T11:01:42.791Z,100453.00
2018-07-05T11:04:29.574Z,100456.00
2018-07-05T11:07:16.243Z,100457.00
2018-07-05T11:10:03.185Z,100462.00
2018-07-05T11:12:49.585Z,100457.00
2018-07-05T11:15:36.749Z,100457.00
2018-07-05T11:18:23.773Z,100455.00
2018-07-05T11:21:10.594Z,100456.00
2018-07-05T11:23:51.249Z,100457.00
2018-07-05T11:26:37.943Z,100454.00
2018-07-05T11:29:24.502Z,100444.00
2018-07-05T11:32:12.182Z,100446.00
2018-07-05T11:34:59.167Z,100454.00
2018-07-05T11:37:46.893Z,100447.00
2018-07-05T11:40:33.306Z,100447.00
2018-07-05T11:43:20.054Z,100442.00
2018-07-05T11:46:00.564Z,100446.00
2018-07-05T11:48:47.277Z,100437.00
2018-07-05T11:51:34.074Z,100437.00
2018-07-05T11:54:20.590Z,100436.00
2018-07-05T11:57:07.302Z,100440.00
2018-07-05T11:59:54.095Z,100436.00
2018-07-05T12:02:40.786Z,100436.00
2018-07-05T12:05:27.589Z,100430.00
2018-07-05T12:08:13.808Z,100438.00
2018-07-05T12:11:00.035Z,100439.00
2018-07-05T12:13:46.417Z,100445.00
2018-07-05T12:16:32.748Z,100440.00
2018-07-05T12:19:19.059Z,100442.00
2018-07-05T12:22:05.646Z,100443.00
2018-07-05T12:24:52.383Z,100442.00
2018-07-05T12:27:39.233Z,100447.00
2018-07-05T12:30:25.878Z,100450.00
2018-07-05T12:33:12.681Z,100448.00
2018-07-05T12:36:00.547Z,100445.00
2018-07-05T12:38:46.982Z,100436.00
2018-07-05T12:41:27.493Z,100442.00
2018-07-05T12:44:14.273Z,100446.00
2018-07-05T12:47:00.852Z,100445.00
2018-07-05T12:49:47.453Z,100439.00
2018-07-05T12:52:33.960Z,100438.00
2018-07-05T12:55:20.437Z,100437.00
2018-07-05T12:58:07.085Z,100440.00
2018-07-05T13:00:53.865Z,100434.00
2018-07-05T13:03:40.639Z,100434.00
2018-07-05T13:06:27.244Z,100426.00
2018-07-05T13:09:14.766Z,100430.00
2018-07-05T13:12:01.337Z,100427.00
2018-07-05T13:14:47.958Z,100419.00
2018-07-05T13:17:28.813Z,100421.00
2018-07-05T13:20:15.384Z,100419.00
2018-07-05T13:23:02.274Z,100419.00
2018-07-05T13:25:49.000Z,100416.00
2018-07-05T13:28:36.113Z,100419.00
2018-07-05T13:31:22.708Z,100424.00
2018-07-05T13:34:09.369Z,100428.00
2018-07-05T13:36:56.077Z,100428.00
2018-07-05T13:39:43.117Z,100432.00
2018-07-05T13:42:29.823Z,100427.00
2018-07-05T13:45:16.606Z,100429.00
2018-07-05T13:48:03.084Z,100436.00
2018-07-05T13:50:49.958Z,100429.00
2018-07-05T13:53:36.609Z,100422.00
2018-07-05T13:56:23.372Z,100439.00
2018-07-05T13:59:09.692Z,100434.00
2018-07-05T14:01:56.483Z,100445.00
2018-07-05T14:04:42.749Z,100443.00
2018-07-05T14:07:29.537Z,100441.00
2018-07-05T14:10:16.496Z,100442.00
2018-07-05T14:13:03.412Z,100440.00
2018-07-05T14:15:50.363Z,100440.00
2018-07-05T14:18:37.204Z,100439.00
2018-07-05T14:21:24.472Z,100441.00
2018-07-05T14:24:11.526Z,100445.00
2018-07-05T14:26:58.224Z,100450.00
2018-07-05T14:29:44.952Z,100449.00
2018-07-05T14:32:31.756Z,100450.00
2018-07-05T14:35:18.301Z,100445.00
2018-07-05T14:38:05.124Z,100450.00
2018-07-05T14:40:51.928Z,100455.00
2018-07-05T14:43:38.785Z,100449.00
2018-07-05T14:46:19.555Z,100452.00
2018-07-05T14:49:06.237Z,100460.00
2018-07-05T14:51:53.084Z,100463.00
2018-07-05T14:54:39.884Z,100466.00
2018-07-05T14:57:26.664Z,100463.00
2018-07-05T15:00:13.362Z,100462.00
2018-07-05T15:02:59.695Z,100473.00
2018-07-05T15:05:46.883Z,100467.00
2018-07-05T15:08:33.380Z,100468.00
2018-07-05T15:11:20.212Z,100473.00
2018-07-05T15:14:07.036Z,100470.00
2018-07-05T15:16:53.997Z,100465.00
2018-07-05T15:19:42.578Z,100467.00
2018-07-05T15:22:29.169Z,100469.00
2018-07-05T15:25:15.524Z,100467.00
2018-07-05T15:28:02.076Z,100468.00
2018-07-05T15:30:48.311Z,100471.00
2018-07-05T15:33:34.977Z,100476.00
2018-07-05T15:36:21.745Z,100472.00
2018-07-05T15:39:08.106Z,100475.00
2018-07-05T15:41:56.045Z,100473.00
2018-07-05T15:44:42.744Z,100474.00
2018-07-05T15:47:29.500Z,100468.00
2018-07-05T15:50:16.352Z,100468.00
2018-07-05T15:53:03.190Z,100463.00
2018-07-05T15:55:49.838Z,100463.00
2018-07-05T15:58:36.714Z,100462.00
2018-07-05T16:01:23.344Z,100460.00
2018-07-05T16:04:10.403Z,100455.00
2018-07-05T16:06:56.538Z,100459.00
2018-07-05T16:09:43.788Z,100457.00
2018-07-05T16:12:30.437Z,100454.00
2018-07-05T16:15:17.251Z,100452.00
2018-07-05T16:18:04.008Z,100444.00
2018-07-05T16:20:50.807Z,100446.00
2018-07-05T16:23:37.074Z,100446.00
2018-07-05T16:26:23.757Z,100434.00
2018-07-05T16:29:10.305Z,100432.00
2018-07-05T16:31:57.349Z,100430.00
2018-07-05T16:34:43.824Z,100429.00
2018-07-05T16:37:30.625Z,100430.00
2018-07-05T16:40:17.348Z,100427.00
2018-07-05T16:43:04.089Z,100430.00
2018-07-05T16:45:50.770Z,100433.00
2018-07-05T16:48:37.581Z,100426.00
2018-07-05T16:51:24.323Z,100422.00
2018-07-05T16:54:10.801Z,100424.00
2018-07-05T16:56:57.054Z,100420.00
2018-07-05T16:59:43.844Z,100418.00
2018-07-05T17:02:30.658Z,100417.00
2018-07-05T17:05:17.204Z,100426.00
2018-07-05T17:08:04.091Z,100430.00
2018-07-05T17:10:50.879Z,100427.00
2018-07-05T17:13:37.608Z,100441.00
2018-07-05T17:16:24.321Z,100435.00
2018-07-05T17:19:11.128Z,100434.00
2018-07-05T17:21:57.648Z,100444.00
2018-07-05T17:24:44.413Z,100447.00
2018-07-05T17:27:30.955Z,100449.00
2018-07-05T17:30:17.588Z,100448.00
2018-07-05T17:33:04.139Z,100442.00
2018-07-05T17:35:50.708Z,100452.00
2018-07-05T17:38:37.776Z,100450.00
2018-07-05T17:41:24.549Z,100447.00
2018-07-05T17:44:11.343Z,100450.00
2018-07-05T17:46:58.039Z,100449.00
2018-07-05T17:49:44.690Z,100449.00
2018-07-05T17:52:31.149Z,100446.00
2018-07-05T17:55:17.648Z,100445.00
2018-07-05T17:58:04.408Z,100446.00
2018-07-05T18:00:52.218Z,100447.00
2018-07-05T18:03:38.698Z,100447.00
2018-07-05T18:06:25.352Z,100446.00
2018-07-05T18:09:11.977Z,100458.00
2018-07-05T18:11:58.571Z,100461.00
2018-07-05T18:14:45.213Z,100466.00
2018-07-05T18:17:31.999Z,100468.00
2018-07-05T18:20:18.914Z,100468.00
2018-07-05T18:23:05.590Z,100471.00
2018-07-05T18:25:52.274Z,100472.00
2018-07-05T18:28:39.217Z,100472.00
2018-07-05T18:31:26.134Z,100474.00
2018-07-05T18:34:12.942Z,100476.00
2018-07-05T18:36:59.714Z,100476.00
2018-07-05T18:39:46.378Z,100484.00
2018-07-05T18:42:32.908Z,100490.00
2018-07-05T18:45:19.464Z,100492.00
2018-07-05T18:48:06.303Z,100507.00
2018-07-05T18:50:52.928Z,100513.00
2018-07-05T18:53:39.275Z,100515.00
2018-07-05T18:56:25.880Z,100525.00
2018-07-05T18:59:12.468Z,100534.00
2018-07-05T19:01:58.959Z,100537.00
2018-07-05T19:04:45.838Z,100539.00
2018-07-05T19:07:32.804Z,100547.00
2018-07-05T19:10:19.377Z,100552.00
2018-07-05T19:13:06.082Z,100550.00
2018-07-05T19:15:52.752Z,100555.00
2018-07-05T19:18:33.356Z,100561.00
2018-07-05T19:21:20.607Z,100558.00
2018-07-05T19:24:07.513Z,100564.00
2018-07-05T19:26:54.397Z,100567.00
2018-07-05T19:29:40.903Z,100569.00
2018-07-05T19:32:27.815Z,100574.00
2018-07-05T19:35:14.353Z,100582.00
2018-07-05T19:38:01.280Z,100581.00
2018-07-05T19:40:47.924Z,100588.00
2018-07-05T19:43:34.798Z,100595.00
2018-07-05T19:46:15.590Z,100601.00
2018-07-05T19:49:02.136Z,100605.00
2018-07-05T19:51:48.957Z,100610.00
2018-07-05T19:54:35.779Z,100621.00
2018-07-05T19:57:22.691Z,100624.00
2018-07-05T20:00:09.533Z,100629.00
2018-07-05T20:02:56.500Z,100635.00
2018-07-05T20:05:43.134Z,100639.00
2018-07-05T20:08:30.054Z,100647.00
2018-07-05T20:11:10.799Z,100655.00
2018-07-05T20:13:57.368Z,100659.00
2018-07-05T20:16:44.206Z,100664.00
2018-07-05T20:19:30.871Z,100669.00
2018-07-05T20:22:19.841Z,100667.00
2018-07-05T20:25:06.898Z,100673.00
2018-07-05T20:27:53.667Z,100676.00
2018-07-05T20:30:40.377Z,100682.00
2018-07-05T20:33:27.278Z,100686.00
2018-07-05T20:36:13.700Z,100689.00
2018-07-05T20:39:00.401Z,100689.00
2018-07-05T20:41:47.175Z,100695.00
2018-07-05T20:44:33.403Z,100698.00
2018-07-05T20:47:20.026Z,100701.00
2018-07-05T20:50:07.124Z,100707.00
2018-07-05T20:52:53.628Z,100709.00
2018-07-05T20:55:40.120Z,100711.00
2018-07-05T20:58:26.878Z,100715.00
2018-07-05T21:01:13.660Z,100718.00
2018-07-05T21:04:00.473Z,100724.00
2018-07-05T21:06:47.178Z,100722.00
2018-07-05T21:09:34.081Z,100725.00
2018-07-05T21:12:20.248Z,100733.00
2018-07-05T21:15:07.103Z,100737.00
2018-07-05T21:17:53.998Z,100738.00
2018-07-05T21:20:40.175Z,100739.00
2018-07-05T21:23:26.974Z,100743.00
2018-07-05T21:26:13.517Z,100751.00
2018-07-05T21:28:59.907Z,100752.00
2018-07-05T21:31:46.413Z,100755.00
2018-07-05T21:34:33.122Z,100759.00
2018-07-05T21:37:19.795Z,100761.00
2018-07-05T21:40:06.291Z,100764.00
2018-07-05T21:42:52.923Z,100767.00
2018-07-05T21:45:39.503Z,100769.00
2018-07-05T21:48:26.004Z,100772.00
2018-07-05T21:51:12.380Z,100777.00
2018-07-05T21:53:59.117Z,100781.00
2018-07-05T21:56:46.217Z,100779.00
2018-07-05T21:59:33.067Z,100777.00
2018-07-05T22:02:19.814Z,100778.00
2018-07-05T22:05:10.513Z,100779.00
2018-07-05T22:07:57.308Z,100784.00
2018-07-05T22:10:44.140Z,100785.00
2018-07-05T22:13:30.880Z,100791.00
2018-07-05T22:16:17.515Z,100792.00
2018-07-05T22:19:09.335Z,100794.00
2018-07-05T22:22:00.748Z,100798.00
2018-07-05T22:24:52.443Z,100801.00
2018-07-05T22:27:44.462Z,100800.00
2018-07-05T22:30:36.496Z,100801.00
2018-07-05T22:33:22.717Z,100807.00
2018-07-05T22:36:09.442Z,100808.00
2018-07-05T22:38:56.173Z,100809.00
2018-07-05T22:41:42.816Z,100812.00
2018-07-05T22:44:29.403Z,100811.00
2018-07-05T22:47:16.074Z,100819.00
2018-07-05T22:50:03.124Z,100821.00
2018-07-05T22:52:49.603Z,100823.00
2018-07-05T22:55:35.853Z,100825.00
2018-07-05T22:58:22.643Z,100826.00
2018-07-05T23:01:09.356Z,100828.00
2018-07-05T23:03:56.357Z,100833.00
2018-07-05T23:06:42.860Z,100836.00
2018-07-05T23:09:29.659Z,100836.00
2018-07-05T23:12:15.872Z,100839.00
2018-07-05T23:15:02.463Z,100840.00
2018-07-05T23:17:49.264Z,100822.00
2018-07-05T23:20:35.534Z,100850.00
2018-07-05T23:23:21.937Z,100854.00
2018-07-05T23:26:08.688Z,100855.00
2018-07-05T23:28:55.352Z,100859.00
2018-07-05T23:31:41.957Z,100858.00
2018-07-05T23:34:28.860Z,100856.00
2018-07-05T23:37:15.685Z,100854.00
2018-07-05T23:40:02.335Z,100853.00
2018-07-05T23:42:49.249Z,100857.00
2018-07-05T23:45:35.964Z,100857.00
2018-07-05T23:48:22.568Z,100858.00
2018-07-05T23:51:09.439Z,100858.00
2018-07-05T23:53:56.248Z,100858.00
2018-07-05T23:56:42.900Z,100865.00
2018-07-05T23:59:29.804Z,100861.00
